Time;durP1;ratioP1;P1;durP2;ratioP2;P2;SDS_P1;SDS_P2;PMS_P1;PMS_P2;Temp;Humidity;BMP_temperature;BMP_pressure;BME280_temperature;BME280_humidity;BME280_pressure;Samples;Min_cycle;Max_cycle;Signal;HPM_P1;HPM_P2
2022/12/17 13:06:49;;;;;;;31.98;15.73;;;0.70;99.90;;;;;;4974510;28;20257;-75
2022/12/17 13:09:15;;;;;;;30.50;17.48;;;0.70;99.90;;;;;;4956748;28;20305;-74
2022/12/17 13:11:49;;;;;;;30.95;16.08;;;0.70;99.90;;;;;;4945553;29;20289;-75
2022/12/17 13:14:17;;;;;;;34.70;17.77;;;0.80;99.90;;;;;;4937770;28;20192;-73
2022/12/17 13:16:46;;;;;;;25.83;15.43;;;0.80;99.90;;;;;;4957130;28;20170;-73
2022/12/17 13:19:32;;;;;;;29.27;16.15;;;0.80;99.90;;;;;;4951205;29;20246;-72
2022/12/17 13:22:14;;;;;;;27.38;14.77;;;0.80;99.90;;;;;;4955678;28;20205;-72
2022/12/17 13:24:47;;;;;;;27.75;14.85;;;0.80;99.90;;;;;;4962654;28;20172;-74
2022/12/17 13:27:32;;;;;;;30.02;15.23;;;0.80;99.90;;;;;;4968403;28;20811;-74
2022/12/17 13:30:16;;;;;;;32.00;15.43;;;0.80;99.90;;;;;;4938047;28;20258;-74
2022/12/17 13:33:16;;;;;;;32.53;16.17;;;0.80;99.90;;;;;;4962608;28;20200;-73
2022/12/17 13:36:01;;;;;;;30.08;16.25;;;0.90;99.90;;;;;;4967470;28;20317;-74
2022/12/17 13:38:42;;;;;;;26.92;16.15;;;0.90;99.90;;;;;;4948257;28;20181;-73
2022/12/17 13:41:09;;;;;;;29.83;15.10;;;0.80;99.90;;;;;;4957864;28;20228;-73
2022/12/17 13:43:56;;;;;;;28.42;15.23;;;0.80;99.90;;;;;;4958561;28;21076;-74
2022/12/17 13:46:29;;;;;;;24.67;15.07;;;0.90;99.90;;;;;;4962668;28;20190;-73
2022/12/17 13:48:59;;;;;;;28.10;15.63;;;0.90;99.90;;;;;;4939616;28;20208;-73
2022/12/17 13:51:27;;;;;;;30.05;15.57;;;0.90;99.90;;;;;;4917330;28;20811;-73
2022/12/17 13:53:56;;;;;;;29.55;15.25;;;1.00;99.90;;;;;;4953420;28;20754;-73
2022/12/17 13:56:34;;;;;;;25.33;14.77;;;1.00;99.90;;;;;;4939906;28;20217;-73
2022/12/17 13:59:03;;;;;;;26.35;14.18;;;1.00;99.90;;;;;;4955868;28;20196;-73
2022/12/17 14:01:42;;;;;;;25.55;14.90;;;1.00;99.90;;;;;;4930747;28;20307;-73
2022/12/17 14:04:28;;;;;;;26.30;16.27;;;1.00;99.90;;;;;;4942973;28;20214;-73
2022/12/17 14:06:58;;;;;;;26.00;14.70;;;1.10;99.90;;;;;;4943001;28;20216;-73
2022/12/17 14:09:33;;;;;;;23.42;14.55;;;1.10;99.90;;;;;;4943638;28;20189;-73
2022/12/17 14:12:20;;;;;;;29.40;15.63;;;1.10;99.90;;;;;;4971128;28;20212;-74
2022/12/17 14:15:03;;;;;;;23.65;13.55;;;1.10;99.90;;;;;;4955030;28;20200;-74
2022/12/17 14:17:47;;;;;;;25.35;15.40;;;1.10;99.90;;;;;;4968929;28;20190;-73
2022/12/17 14:20:16;;;;;;;23.17;13.55;;;1.10;99.90;;;;;;4936985;29;20664;-73
2022/12/17 14:22:52;;;;;;;26.92;15.18;;;1.10;99.90;;;;;;4949247;28;20207;-73
2022/12/17 14:25:20;;;;;;;24.77;15.25;;;1.10;99.90;;;;;;4942495;29;20185;-73
2022/12/17 14:28:02;;;;;;;26.20;15.00;;;1.10;99.90;;;;;;4953818;29;20203;-73
2022/12/17 14:30:31;;;;;;;24.90;14.50;;;1.10;99.90;;;;;;4972729;28;20307;-73
2022/12/17 14:32:57;;;;;;;22.55;13.40;;;1.20;99.90;;;;;;4955729;28;20716;-73
2022/12/17 14:35:34;;;;;;;23.88;15.52;;;1.10;99.90;;;;;;4949688;28;20595;-73
2022/12/17 14:38:23;;;;;;;25.98;14.70;;;1.10;99.90;;;;;;4944804;28;20242;-74
2022/12/17 14:40:50;;;;;;;27.88;15.57;;;1.10;99.90;;;;;;4946982;28;20248;-74
2022/12/17 14:43:22;;;;;;;27.50;14.48;;;1.10;99.90;;;;;;4970791;28;20222;-73
2022/12/17 14:51:37;;;;;;;22.67;13.52;;;1.20;99.90;;;;;;4970334;28;20312;-73
2022/12/17 14:54:25;;;;;;;27.95;14.85;;;1.20;99.90;;;;;;4905506;29;20178;-72
2022/12/17 14:56:54;;;;;;;22.42;14.13;;;1.20;99.90;;;;;;4953203;28;20193;-72
2022/12/17 14:59:37;;;;;;;22.75;14.70;;;1.20;99.90;;;;;;4958982;28;20285;-73
2022/12/17 15:02:29;;;;;;;21.23;14.00;;;1.20;99.90;;;;;;4972363;28;20264;-73
2022/12/17 15:04:59;;;;;;;20.25;12.55;;;1.20;99.90;;;;;;4928119;28;20682;-73
2022/12/17 15:07:30;;;;;;;18.90;13.10;;;1.20;99.90;;;;;;4971230;28;20252;-73
2022/12/17 15:09:59;;;;;;;23.33;13.65;;;1.20;99.90;;;;;;4957067;28;20241;-73
2022/12/17 15:12:27;;;;;;;21.85;12.40;;;1.20;99.90;;;;;;4948066;29;20202;-73
2022/12/17 15:14:57;;;;;;;22.90;13.75;;;1.20;99.90;;;;;;4956413;28;20200;-73
2022/12/17 15:17:23;;;;;;;17.52;12.23;;;1.20;99.90;;;;;;4948766;29;20182;-73
2022/12/17 15:19:49;;;;;;;20.27;13.02;;;1.20;99.90;;;;;;4956847;29;20643;-72
2022/12/17 15:22:17;;;;;;;26.30;15.35;;;1.20;99.90;;;;;;4944415;28;20289;-76
2022/12/17 15:24:46;;;;;;;21.60;13.45;;;1.20;99.90;;;;;;4929982;29;20189;-74
2022/12/17 15:27:15;;;;;;;21.52;14.13;;;1.20;99.90;;;;;;4943619;29;20306;-74
2022/12/17 15:29:41;;;;;;;22.67;13.90;;;1.20;99.90;;;;;;4958803;28;20190;-71
2022/12/17 15:32:16;;;;;;;17.48;11.63;;;1.20;99.90;;;;;;4943902;28;20196;-72
2022/12/17 15:34:54;;;;;;;20.75;12.65;;;1.20;99.90;;;;;;4976614;28;20192;-73
2022/12/17 15:37:22;;;;;;;22.63;14.50;;;1.20;99.90;;;;;;4943608;28;20169;-74
2022/12/17 15:39:48;;;;;;;20.27;12.98;;;1.20;99.90;;;;;;4975765;28;20784;-72
2022/12/17 15:45:01;;;;;;;22.48;12.93;;;1.20;99.90;;;;;;4978642;28;20309;-72
2022/12/17 15:47:30;;;;;;;27.42;16.05;;;1.20;99.90;;;;;;4977515;28;20235;-72
2022/12/17 15:49:56;;;;;;;26.92;15.60;;;1.20;99.80;;;;;;4978559;28;20185;-71
2022/12/17 15:52:22;;;;;;;27.70;16.50;;;1.10;98.60;;;;;;4978027;28;20212;-72
2022/12/17 15:54:51;;;;;;;28.35;17.00;;;0.90;97.90;;;;;;4943893;28;20181;-72
2022/12/17 15:57:22;;;;;;;28.88;16.85;;;0.80;97.60;;;;;;4975783;28;20172;-72
2022/12/17 15:59:51;;;;;;;73.25;42.40;;;0.60;97.20;;;;;;4972219;28;20239;-72
2022/12/17 16:02:17;;;;;;;57.57;31.90;;;0.40;96.70;;;;;;4968801;28;20201;-72
2022/12/17 16:04:43;;;;;;;44.85;29.42;;;0.30;96.80;;;;;;4976884;28;20428;-72
2022/12/17 16:07:09;;;;;;;51.70;32.40;;;0.10;97.00;;;;;;4958883;28;20209;-72
2022/12/17 16:09:35;;;;;;;49.20;30.45;;;0.10;97.20;;;;;;4974408;28;20430;-71
2022/12/17 16:12:06;;;;;;;42.67;29.08;;;0.10;97.50;;;;;;4956323;29;20209;-72
2022/12/17 16:14:32;;;;;;;163.75;108.68;;;0.10;97.70;;;;;;4940475;29;20188;-72
2022/12/17 16:16:58;;;;;;;113.85;72.30;;;0.10;97.70;;;;;;4957147;29;20159;-72
2022/12/17 16:19:25;;;;;;;101.57;65.43;;;0.20;97.80;;;;;;4920186;28;20242;-73
2022/12/17 16:21:51;;;;;;;105.57;66.32;;;0.20;98.00;;;;;;4941481;28;20793;-72
2022/12/17 16:24:17;;;;;;;91.57;61.40;;;0.30;98.10;;;;;;4972840;28;20180;-73
2022/12/17 16:26:43;;;;;;;94.55;62.55;;;0.30;98.30;;;;;;4957883;28;20422;-73
2022/12/17 16:29:12;;;;;;;87.65;59.38;;;0.40;98.50;;;;;;4957494;28;20563;-72
2022/12/17 16:31:38;;;;;;;83.53;56.03;;;0.40;98.60;;;;;;4974164;28;20207;-72
2022/12/17 16:34:11;;;;;;;82.40;55.60;;;0.50;98.70;;;;;;4955291;28;20212;-73
2022/12/17 16:36:41;;;;;;;38.92;22.02;;;0.60;98.80;;;;;;4973524;28;20185;-72
2022/12/17 16:39:16;;;;;;;39.20;20.17;;;0.60;98.60;;;;;;4955796;28;20237;-72
2022/12/17 16:41:45;;;;;;;43.30;21.30;;;0.50;98.00;;;;;;4969555;28;20196;-72
2022/12/17 16:44:11;;;;;;;40.95;22.10;;;0.40;97.30;;;;;;4955073;28;20202;-72
2022/12/17 16:46:39;;;;;;;145.35;63.78;;;0.30;97.20;;;;;;4974128;28;20168;-72
2022/12/17 16:49:17;;;;;;;39.67;22.10;;;0.30;96.90;;;;;;4973975;28;20664;-72
2022/12/17 16:51:45;;;;;;;30.02;17.02;;;0.20;96.80;;;;;;4942024;28;20208;-72
2022/12/17 16:54:14;;;;;;;25.65;15.85;;;0.20;96.60;;;;;;4975854;28;20249;-73
2022/12/17 16:56:44;;;;;;;32.08;17.83;;;0.10;96.40;;;;;;4942970;28;20264;-72
2022/12/17 16:59:11;;;;;;;45.45;24.35;;;0.10;96.40;;;;;;4975715;28;20649;-72
2022/12/17 17:01:43;;;;;;;32.58;20.10;;;0.00;96.20;;;;;;4958331;28;20211;-72
2022/12/17 17:04:13;;;;;;;60.83;30.75;;;0.00;96.20;;;;;;4959063;28;20187;-72
2022/12/17 17:06:49;;;;;;;30.10;18.90;;;-0.10;96.10;;;;;;4958693;28;20247;-73
2022/12/17 17:09:18;;;;;;;32.80;15.55;;;-0.10;96.10;;;;;;4958285;28;20567;-73
2022/12/17 17:11:52;;;;;;;31.88;16.88;;;-0.20;96.00;;;;;;4958320;28;20566;-72
2022/12/17 17:14:18;;;;;;;26.50;17.52;;;-0.20;96.00;;;;;;4954621;29;20652;-72
2022/12/17 17:16:44;;;;;;;26.27;15.50;;;-0.20;96.00;;;;;;4954773;29;20646;-73
2022/12/17 17:19:10;;;;;;;24.90;14.75;;;-0.20;95.90;;;;;;4954615;28;20509;-73
2022/12/17 17:21:41;;;;;;;33.80;16.05;;;-0.20;95.80;;;;;;4939160;29;20298;-72
2022/12/17 17:24:14;;;;;;;24.95;14.25;;;-0.30;95.60;;;;;;4966756;28;20212;-76
2022/12/17 17:26:43;;;;;;;27.65;15.90;;;-0.30;95.60;;;;;;4957117;28;20210;-72
2022/12/17 17:29:09;;;;;;;23.30;14.30;;;-0.30;95.60;;;;;;4975065;28;20189;-73
2022/12/17 17:31:38;;;;;;;29.40;15.70;;;-0.30;95.60;;;;;;4957889;28;20522;-73
2022/12/17 17:34:13;;;;;;;33.60;15.80;;;-0.30;95.60;;;;;;4941772;28;20212;-73
2022/12/17 17:36:40;;;;;;;25.08;14.90;;;-0.30;95.50;;;;;;4974041;28;20167;-73
2022/12/17 17:39:06;;;;;;;28.73;15.77;;;-0.40;95.30;;;;;;4974826;28;20163;-73
2022/12/17 17:41:35;;;;;;;28.77;15.98;;;-0.40;95.30;;;;;;4973472;28;20217;-73
2022/12/17 17:44:07;;;;;;;23.38;14.18;;;-0.40;95.30;;;;;;4930600;28;20199;-73
2022/12/17 17:46:34;;;;;;;27.02;14.90;;;-0.40;95.30;;;;;;4977087;28;20185;-73
2022/12/17 17:49:01;;;;;;;28.65;16.52;;;-0.40;95.30;;;;;;4973279;28;20196;-73
2022/12/17 17:51:32;;;;;;;27.15;16.08;;;-0.40;95.40;;;;;;4973598;28;20198;-73
2022/12/17 17:54:00;;;;;;;30.80;16.33;;;-0.40;95.40;;;;;;4974494;28;20245;-73
2022/12/17 17:56:29;;;;;;;29.17;15.32;;;-0.40;95.30;;;;;;4954191;29;20191;-73
2022/12/17 17:58:58;;;;;;;26.98;14.90;;;-0.50;95.30;;;;;;4956706;28;20183;-73
2022/12/17 18:01:27;;;;;;;25.38;13.75;;;-0.50;95.30;;;;;;4957293;28;20217;-73
2022/12/17 18:03:57;;;;;;;28.42;13.68;;;-0.40;95.20;;;;;;4973336;28;20240;-72
2022/12/17 18:06:25;;;;;;;26.33;16.73;;;-0.50;95.00;;;;;;4957291;28;20198;-73
2022/12/17 18:08:54;;;;;;;28.67;16.17;;;-0.50;94.90;;;;;;4940922;28;20270;-73
2022/12/17 18:11:38;;;;;;;32.42;19.25;;;-0.50;94.80;;;;;;4959137;28;20207;-74
2022/12/17 18:14:06;;;;;;;37.20;20.25;;;-0.60;94.70;;;;;;4941316;28;20192;-74
2022/12/17 18:16:38;;;;;;;36.53;18.63;;;-0.60;94.80;;;;;;4941330;28;20195;-74
2022/12/17 18:19:05;;;;;;;31.00;17.70;;;-0.60;94.90;;;;;;4974261;28;20629;-74
2022/12/17 18:21:35;;;;;;;31.98;18.02;;;-0.60;95.00;;;;;;4957110;28;20245;-74
2022/12/17 18:24:13;;;;;;;26.40;15.43;;;-0.60;95.10;;;;;;4973223;28;20581;-74
2022/12/17 18:26:43;;;;;;;26.23;15.15;;;-0.60;95.20;;;;;;4956798;28;20228;-74
2022/12/17 18:29:21;;;;;;;23.25;14.18;;;-0.60;95.20;;;;;;4937599;29;20196;-74
2022/12/17 18:31:50;;;;;;;26.02;15.73;;;-0.60;95.30;;;;;;4947717;28;20203;-74
2022/12/17 18:34:18;;;;;;;33.92;16.85;;;-0.50;95.40;;;;;;4972951;28;20647;-73
2022/12/17 18:36:48;;;;;;;25.50;15.20;;;-0.50;95.40;;;;;;4924869;28;20191;-74
2022/12/17 18:39:17;;;;;;;48.75;26.40;;;-0.50;95.40;;;;;;4940355;28;20641;-74
2022/12/17 18:44:31;;;;;;;27.67;17.33;;;-0.50;95.40;;;;;;4953465;29;20191;-74
2022/12/17 18:46:58;;;;;;;30.08;15.45;;;-0.40;95.40;;;;;;4954762;29;20264;-74
2022/12/17 18:49:26;;;;;;;26.58;15.10;;;-0.40;95.30;;;;;;4937515;29;20247;-74
2022/12/17 18:51:53;;;;;;;28.27;16.30;;;-0.40;95.30;;;;;;4937631;29;20339;-74
2022/12/17 18:54:25;;;;;;;21.92;14.55;;;-0.40;95.20;;;;;;4953806;29;20259;-74
2022/12/17 18:56:57;;;;;;;23.88;14.13;;;-0.40;95.20;;;;;;4953830;29;20169;-74
2022/12/17 18:59:25;;;;;;;24.67;13.65;;;-0.40;95.10;;;;;;4944505;28;20634;-74
2022/12/17 19:01:52;;;;;;;34.03;15.00;;;-0.40;95.00;;;;;;4927102;29;20208;-74
2022/12/17 19:04:20;;;;;;;22.50;13.52;;;-0.40;94.80;;;;;;4936757;29;20162;-74
2022/12/17 19:06:48;;;;;;;23.52;14.35;;;-0.40;94.80;;;;;;4954561;29;20246;-74
2022/12/17 19:09:24;;;;;;;28.08;15.00;;;-0.40;94.70;;;;;;4953462;29;20310;-74
2022/12/17 19:11:58;;;;;;;23.60;13.55;;;-0.50;94.50;;;;;;4937419;29;20275;-75
2022/12/17 19:14:27;;;;;;;22.77;13.63;;;-0.60;94.40;;;;;;4954669;28;20279;-74
2022/12/17 19:16:56;;;;;;;22.67;13.02;;;-0.60;94.40;;;;;;4972870;28;20187;-74
2022/12/17 19:19:25;;;;;;;23.58;14.98;;;-0.70;94.30;;;;;;4925562;28;20900;-74
2022/12/17 19:21:59;;;;;;;24.05;14.25;;;-0.70;94.30;;;;;;4956672;28;20288;-74
2022/12/17 19:24:25;;;;;;;22.05;13.82;;;-0.80;94.30;;;;;;4970657;28;20657;-74
2022/12/17 19:26:57;;;;;;;22.27;13.60;;;-0.80;94.40;;;;;;4937557;29;20208;-74
2022/12/17 19:29:23;;;;;;;27.17;14.88;;;-0.90;94.30;;;;;;4921377;29;20242;-74
2022/12/17 19:31:49;;;;;;;23.45;14.40;;;-0.90;94.40;;;;;;4973357;28;20199;-74
2022/12/17 19:34:17;;;;;;;25.00;16.07;;;-0.90;94.50;;;;;;4940351;28;20194;-75
2022/12/17 19:36:44;;;;;;;27.95;15.25;;;-1.00;94.50;;;;;;4952126;29;20441;-74
2022/12/17 19:39:13;;;;;;;24.10;13.55;;;-1.00;94.60;;;;;;4937316;29;20204;-75
2022/12/17 19:41:39;;;;;;;22.73;14.00;;;-1.00;94.70;;;;;;4969945;28;20198;-74
2022/12/17 19:44:12;;;;;;;25.70;15.77;;;-1.10;94.70;;;;;;4950283;29;20195;-74
2022/12/17 19:46:39;;;;;;;26.00;15.07;;;-1.10;94.80;;;;;;4957627;28;20279;-74
2022/12/17 19:49:07;;;;;;;25.92;16.55;;;-1.10;94.90;;;;;;4924515;29;20215;-74
2022/12/17 19:51:37;;;;;;;48.65;23.02;;;-1.10;95.00;;;;;;4908876;29;20575;-74
2022/12/17 19:54:10;;;;;;;45.03;22.58;;;-1.10;95.20;;;;;;4941193;29;20174;-74
2022/12/17 19:56:37;;;;;;;39.15;22.50;;;-1.20;95.30;;;;;;4927990;28;20186;-74
2022/12/17 19:59:06;;;;;;;26.70;16.75;;;-1.20;95.30;;;;;;4975846;28;20176;-74
2022/12/17 20:01:43;;;;;;;23.02;14.95;;;-1.20;95.30;;;;;;4959760;28;20229;-74
2022/12/17 20:04:12;;;;;;;25.33;14.13;;;-1.20;95.50;;;;;;4944589;28;20595;-75
2022/12/17 20:06:38;;;;;;;25.92;13.23;;;-1.10;95.50;;;;;;4976658;28;20163;-74
2022/12/17 20:09:05;;;;;;;21.50;13.73;;;-1.10;95.70;;;;;;4942216;28;20223;-75
2022/12/17 20:11:34;;;;;;;24.60;14.02;;;-1.10;95.70;;;;;;4969675;28;20461;-75
2022/12/17 20:14:09;;;;;;;22.35;13.55;;;-1.10;95.70;;;;;;4959587;28;20179;-75
2022/12/17 20:16:43;;;;;;;26.98;15.07;;;-1.20;95.60;;;;;;4943453;28;20265;-75
2022/12/17 20:19:14;;;;;;;25.00;13.93;;;-1.20;95.60;;;;;;4976670;28;20167;-75
2022/12/17 20:21:40;;;;;;;26.23;13.50;;;-1.20;95.70;;;;;;4943382;28;20684;-75
2022/12/17 20:24:07;;;;;;;19.17;14.02;;;-1.20;95.70;;;;;;4959448;28;20172;-75
2022/12/17 20:26:35;;;;;;;24.25;14.02;;;-1.20;95.70;;;;;;4959272;28;20191;-74
2022/12/17 20:29:05;;;;;;;31.33;14.73;;;-1.20;95.70;;;;;;4959009;28;20199;-76
2022/12/17 20:31:35;;;;;;;21.08;14.13;;;-1.20;95.60;;;;;;4942401;29;20215;-76
2022/12/17 20:34:09;;;;;;;24.58;15.45;;;-1.20;95.70;;;;;;4924188;29;20215;-75
2022/12/17 20:36:39;;;;;;;21.73;13.60;;;-1.30;95.60;;;;;;4938440;29;20179;-75
2022/12/17 20:39:09;;;;;;;22.20;12.75;;;-1.30;95.70;;;;;;4953650;29;20156;-75
2022/12/17 20:41:39;;;;;;;25.65;13.82;;;-1.30;95.80;;;;;;4964241;28;20207;-75
2022/12/17 20:44:16;;;;;;;19.35;12.30;;;-1.30;95.90;;;;;;4974598;28;20234;-75
2022/12/17 20:46:42;;;;;;;19.90;11.68;;;-1.30;95.90;;;;;;4957886;28;20183;-75
2022/12/17 20:49:13;;;;;;;21.13;11.52;;;-1.30;95.90;;;;;;4962898;28;20196;-75
2022/12/17 20:51:39;;;;;;;20.35;13.88;;;-1.40;95.80;;;;;;4965507;28;20210;-75
2022/12/17 20:54:07;;;;;;;20.15;12.18;;;-1.40;95.70;;;;;;4973969;28;20215;-76
2022/12/17 20:56:36;;;;;;;21.42;13.13;;;-1.40;95.80;;;;;;4942684;28;20193;-75
2022/12/17 20:59:05;;;;;;;22.65;13.18;;;-1.40;95.70;;;;;;4981369;28;20727;-75
2022/12/17 21:01:36;;;;;;;25.48;14.00;;;-1.40;95.70;;;;;;4957902;28;20208;-75
2022/12/17 21:04:06;;;;;;;26.20;14.95;;;-1.40;95.80;;;;;;4938455;29;20172;-75
2022/12/17 21:06:40;;;;;;;28.17;15.43;;;-1.40;95.80;;;;;;4955411;29;20170;-75
2022/12/17 21:09:07;;;;;;;24.83;14.38;;;-1.40;95.90;;;;;;4937851;29;20214;-75
2022/12/17 21:11:37;;;;;;;22.05;11.65;;;-1.30;95.90;;;;;;4971140;28;20713;-75
2022/12/17 21:14:05;;;;;;;20.38;12.73;;;-1.40;95.90;;;;;;4957645;28;20190;-76
2022/12/17 21:16:37;;;;;;;25.02;14.02;;;-1.40;95.90;;;;;;4974843;28;20194;-76
2022/12/17 21:19:05;;;;;;;20.77;12.13;;;-1.40;95.90;;;;;;4942024;28;20183;-76
2022/12/17 21:21:36;;;;;;;22.75;13.77;;;-1.40;96.00;;;;;;4942178;28;20692;-76
2022/12/17 21:24:07;;;;;;;22.55;13.00;;;-1.40;96.00;;;;;;4957964;28;20649;-76
2022/12/17 21:26:38;;;;;;;19.45;12.75;;;-1.40;96.00;;;;;;4942241;28;20171;-76
2022/12/17 21:29:06;;;;;;;23.60;13.35;;;-1.40;95.90;;;;;;4970248;28;20216;-75
2022/12/17 21:31:45;;;;;;;28.70;14.20;;;-1.40;96.00;;;;;;4955589;29;20231;-76
2022/12/17 21:34:20;;;;;;;27.10;15.63;;;-1.40;96.00;;;;;;4953320;29;20199;-75
2022/12/17 21:36:47;;;;;;;30.30;15.38;;;-1.50;96.00;;;;;;4954489;29;20160;-75
2022/12/17 21:39:15;;;;;;;47.08;24.95;;;-1.50;96.10;;;;;;4922866;29;20176;-75
2022/12/17 21:43:00;;;;;;;30.85;18.63;;;-1.40;96.20;;;;;;4938252;28;20684;-75
2022/12/17 21:44:31;;;;;;;32.90;18.60;;;-1.40;96.30;;;;;;4973622;28;20191;-75
2022/12/17 21:47:00;;;;;;;39.42;21.75;;;-1.40;96.40;;;;;;4957745;28;20174;-75
2022/12/17 21:49:29;;;;;;;40.33;22.48;;;-1.40;96.40;;;;;;4957363;28;20171;-76
2022/12/17 21:52:00;;;;;;;35.00;19.40;;;-1.40;96.50;;;;;;4957077;28;20195;-76
2022/12/17 21:54:26;;;;;;;26.95;15.82;;;-1.40;96.60;;;;;;4938195;29;20538;-75
2022/12/17 21:56:53;;;;;;;31.30;17.00;;;-1.40;96.60;;;;;;4938636;29;20172;-75
2022/12/17 21:59:21;;;;;;;25.10;13.73;;;-1.40;96.80;;;;;;4957127;28;20436;-75
2022/12/17 22:01:49;;;;;;;21.30;11.60;;;-1.40;96.90;;;;;;4925533;28;20207;-75
2022/12/17 22:04:15;;;;;;;21.90;11.30;;;-1.40;97.00;;;;;;4974108;28;20455;-75
2022/12/17 22:06:45;;;;;;;26.38;15.15;;;-1.40;97.20;;;;;;4974608;28;20190;-76
2022/12/17 22:09:12;;;;;;;19.50;12.13;;;-1.40;97.50;;;;;;4974517;28;20187;-75
2022/12/17 22:11:38;;;;;;;21.27;12.63;;;-1.40;97.70;;;;;;4973344;28;20623;-76
2022/12/17 22:14:11;;;;;;;15.13;8.63;;;-1.40;97.90;;;;;;4914766;29;20193;-75
2022/12/17 22:16:41;;;;;;;15.93;8.93;;;-1.40;98.20;;;;;;4914437;29;20440;-75
2022/12/17 22:19:12;;;;;;;18.45;12.25;;;-1.40;98.60;;;;;;4950862;28;20202;-76
2022/12/17 22:21:41;;;;;;;20.02;14.02;;;-1.30;98.80;;;;;;4945678;29;20619;-75
2022/12/17 22:24:18;;;;;;;15.80;10.60;;;-1.30;99.00;;;;;;4966745;28;20270;-76
2022/12/17 22:26:48;;;;;;;16.10;10.70;;;-1.20;99.20;;;;;;4974220;28;20217;-75
2022/12/17 22:32:58;;;;;;;15.60;10.35;;;-1.20;99.20;;;;;;4974277;28;20188;-75
2022/12/17 22:34:46;;;;;;;15.10;8.10;;;-1.20;99.40;;;;;;4972915;28;20195;-75
2022/12/17 22:37:15;;;;;;;12.02;7.30;;;-1.20;99.40;;;;;;4953466;29;20294;-75
2022/12/17 22:39:40;;;;;;;14.00;8.30;;;-1.20;99.50;;;;;;4921819;28;20179;-76
2022/12/17 22:44:56;;;;;;;11.88;8.05;;;-1.20;99.70;;;;;;4937314;29;20188;-76
2022/12/17 22:47:24;;;;;;;9.43;6.50;;;-1.10;99.70;;;;;;4936891;29;20310;-75
2022/12/17 22:49:50;;;;;;;10.60;6.60;;;-1.10;99.60;;;;;;4941708;28;20213;-75
2022/12/17 22:52:16;;;;;;;22.40;8.18;;;-1.10;99.50;;;;;;4955982;28;20207;-75
2022/12/17 22:54:42;;;;;;;10.50;7.30;;;-1.10;99.50;;;;;;4924180;28;20177;-75
2022/12/17 22:57:08;;;;;;;12.57;6.68;;;-1.10;99.60;;;;;;4960912;28;20764;-76
2022/12/17 22:59:35;;;;;;;58.10;10.38;;;-1.00;99.70;;;;;;4956548;28;20267;-76
2022/12/17 23:02:03;;;;;;;28.92;10.95;;;-1.00;99.70;;;;;;4936019;28;20203;-76
2022/12/17 23:04:31;;;;;;;55.22;17.75;;;-0.90;99.90;;;;;;4936304;29;20518;-74
2022/12/17 23:06:58;;;;;;;53.87;16.63;;;-0.60;99.90;;;;;;4936842;28;20179;-75
2022/12/17 23:09:24;;;;;;;33.75;16.02;;;-0.40;99.90;;;;;;4936120;29;20461;-77
2022/12/17 23:11:49;;;;;;;44.90;15.97;;;-0.10;99.60;;;;;;4937146;28;20272;-77
2022/12/17 23:14:16;;;;;;;41.53;15.85;;;0.00;99.10;;;;;;4954474;28;20907;-76
2022/12/17 23:16:43;;;;;;;43.85;16.63;;;0.20;98.70;;;;;;4953257;28;20197;-78
2022/12/17 23:19:10;;;;;;;35.47;16.73;;;0.30;98.30;;;;;;4959809;28;20192;-75
2022/12/17 23:21:36;;;;;;;41.15;15.07;;;0.40;98.00;;;;;;4960159;28;20683;-75
2022/12/17 23:24:03;;;;;;;29.40;12.75;;;0.40;97.70;;;;;;4934333;28;20219;-75
2022/12/17 23:26:33;;;;;;;34.63;13.00;;;0.40;97.50;;;;;;4959611;28;20206;-75
2022/12/17 23:29:03;;;;;;;25.80;12.60;;;0.40;97.40;;;;;;4975448;28;20196;-75
2022/12/17 23:31:36;;;;;;;40.35;12.93;;;0.40;97.30;;;;;;4927719;28;20200;-75
2022/12/17 23:34:02;;;;;;;24.10;11.10;;;0.40;97.20;;;;;;4943315;28;20728;-75
2022/12/17 23:36:31;;;;;;;22.55;10.88;;;0.40;97.10;;;;;;4958264;28;20263;-75
2022/12/17 23:39:00;;;;;;;24.38;11.40;;;0.40;97.10;;;;;;4969540;28;20960;-75
2022/12/17 23:41:29;;;;;;;21.13;10.93;;;0.30;97.00;;;;;;4957967;28;20294;-75
2022/12/17 23:43:56;;;;;;;18.20;10.43;;;0.30;97.10;;;;;;4973860;28;20165;-75
2022/12/17 23:46:24;;;;;;;18.27;11.05;;;0.30;97.10;;;;;;4974537;28;20197;-75
2022/12/17 23:48:52;;;;;;;18.50;10.98;;;0.30;97.20;;;;;;4958182;28;20200;-75
2022/12/17 23:51:21;;;;;;;20.25;10.80;;;0.20;97.20;;;;;;4975276;28;20215;-75
2022/12/17 23:53:50;;;;;;;21.55;10.82;;;0.20;97.20;;;;;;4939620;29;20191;-75
2022/12/17 23:56:21;;;;;;;19.77;10.85;;;0.20;97.30;;;;;;4940418;29;20179;-75
2022/12/17 23:58:52;;;;;;;21.80;9.85;;;0.20;97.30;;;;;;4971679;28;20542;-75
